Nearby METAR Reports


Data Updates Approximately Every Four Hours

METAR is the international standard code format for hourly surface weather observations which is analogous to the SA coding currently used in the US. The acronym roughly translates from French as Aviation Routine Weather Report. SPECI is merely the code name given to METAR formatted products which are issued on a special non-routine basis as dictated by changing meteorological conditions. The SPECI acronym roughly translates as Aviation Selected Special Weather Report.

KSLH - Cheboygan, Michigan, USA
Distance from station: W 9mi, 14km
Updated: 11/19/2017 9:14am
Overcast
Overcast
 Wind from NNW
Wind: NNW 15 mph , 24 km/h, Gust: 20 mph , 31 km/h
Temperature: 28°F , -2°C
Wind Chill: 16°F , -9°C
Dew Point: 19°F , -7°C
Humidity: 69%
Barometer: 29.77 inHg , 1008.1 hPa
Clouds: Overcast
Visibility: 10 miles , 16 km
Cloud details: Partly cloudy 2900 ft
Mostly cloudy 4600 ft
Overcast 5000 ft
2017/11/19 14:14 KSLH 191414Z AUTO 33013G17KT 10SM SCT029 BKN046 OVC050 M02/M07 A2977 RMK AO2 T10211070
KMCD - Mackinac Island, Michigan, USA
Distance from station: NW 19mi, 31km
Updated: 11/19/2017 9:14am
Overcast
Overcast
 Wind from NNW
Wind: NNW 15 mph , 24 km/h, Gust: 21 mph , 33 km/h
Temperature: 28°F , -2°C
Wind Chill: 16°F , -9°C
Dew Point: 18°F , -8°C
Humidity: 64%
Barometer: 29.78 inHg , 1008.5 hPa
Clouds: Overcast
Visibility: 10 miles , 16 km
Cloud details: Overcast 2900 ft
2017/11/19 14:14 KMCD 191414Z AUTO 33013G18KT 10SM OVC029 M02/M08 A2978 RMK AO2 T10211080
 
KPLN - Pellston, Michigan, USA
Distance from station: WSW 24mi, 38km
Updated: 11/19/2017 9:15am
Snow, Freezing, Fog, Overcast
Snow, Freezing, Fog, Overcast
 Wind from WNW
Wind: WNW 3 mph , 6 km/h
Temperature: 27°F , -3°C
Dew Point: 25°F , -4°C
Humidity: 93%
Barometer: 29.79 inHg , 1008.8 hPa
Summary: Snow, Freezing, Fog
Clouds: Overcast
Visibility: 1/2 mile , 0.8 km
Cloud details: Overcast 800 ft
2017/11/19 14:15 KPLN 191415Z AUTO 30003KT 1/2SM SN FZFG VV008 M03/M04 A2979 RMK AO2 P0001 T10331039
KPZQ - Rogers City, Michigan, USA
Distance from station: SE 31mi, 50km
Updated: 11/19/2017 9:15am
Overcast
Overcast
 Wind from NW
Wind: NW 15 mph , 24 km/h, Gust: 25 mph , 41 km/h
Temperature: 30°F , -1°C
Wind Chill: 19°F , -7°C
Dew Point: 19°F , -7°C
Humidity: 64%
Barometer: 29.76 inHg , 1007.8 hPa
Clouds: Overcast
Visibility: 10 miles , 16 km
Cloud details: Overcast 3500 ft
2017/11/19 14:15 KPZQ 191415Z AUTO 32013G22KT 10SM OVC035 M01/M07 A2976 RMK AO2 T10101073
 
KMGN - Harbor Springs, Michigan, USA
Distance from station: WSW 32mi, 52km
Updated: 11/19/2017 9:15am
Overcast
Overcast
 Wind from NW
Wind: NW 10 mph , 17 km/h, Gust: 20 mph , 31 km/h
Temperature: 30°F , -1°C
Wind Chill: 21°F , -6°C
Dew Point: 19°F , -7°C
Humidity: 64%
Barometer: 29.79 inHg , 1008.8 hPa
Clouds: Overcast
Visibility: 10 miles , 16 km
Cloud details: Mostly cloudy 4000 ft
Mostly cloudy 4600 ft
Overcast 6000 ft
2017/11/19 14:15 KMGN 191415Z AUTO 31009G17KT 10SM BKN040 BKN046 OVC060 M01/M07 A2979 RMK AO2 T10101072
KDRM - Drummond Is, Michigan, USA
Distance from station: NE 36mi, 59km
Updated: 11/19/2017 9:13am
Overcast
Overcast
 Wind from NNW
Wind: NNW 7 mph , 11 km/h, Gust: 18 mph , 30 km/h
Temperature: 27°F , -3°C
Wind Chill: 19°F , -7°C
Dew Point: 16°F , -9°C
Humidity: 64%
Barometer: 29.74 inHg , 1007.1 hPa
Clouds: Overcast
Visibility: 10 miles , 16 km
Cloud details: Partly cloudy 2700 ft
Partly cloudy 3500 ft
Overcast 4200 ft
2017/11/19 14:13 KDRM 191413Z AUTO 34006G16KT 10SM SCT027 SCT035 OVC042 M03/M09 A2974 RMK AO2 T10291089
 
KCIU - Chippewa Intl, Michigan, USA
Distance from station: N 41mi, 66km
Updated: 11/19/2017 9:16am
Light snow, Mist, Overcast
Light snow, Mist, Overcast
 Wind from N
Wind: N 10 mph , 17 km/h
Temperature: 23°F , -5°C
Wind Chill: 13°F , -11°C
Dew Point: 19°F , -7°C
Humidity: 86%
Barometer: 29.77 inHg , 1008.1 hPa
Summary: Light snow, Mist
Clouds: Overcast
Visibility: 1 3/4 miles , 2.8 km
Cloud details: Mostly cloudy 1400 ft
Overcast 2000 ft
2017/11/19 14:16 KCIU 191416Z AUTO 36009KT 1 3/4SM -SN BR BKN014 OVC020 M05/M07 A2977 RMK AO2 FZRANO PNO $
KGLR - Gaylord, Michigan, USA
Distance from station: SSW 48mi, 77km
Updated: 11/19/2017 9:16am
Light snow, Freezing, Fog, Overcast
Light snow, Freezing, Fog, Overcast
 Wind from WNW
Wind: WNW 10 mph , 17 km/h
Temperature: 25°F , -4°C
Wind Chill: 15°F , -9°C
Dew Point: 21°F , -6°C
Humidity: 86%
Barometer: 29.75 inHg , 1007.5 hPa
Summary: Light snow, Freezing, Fog
Clouds: Overcast
Visibility: 1/2 mile , 0.8 km
Cloud details: Mostly cloudy 1500 ft
Overcast 2300 ft
2017/11/19 14:16 KGLR 191416Z AUTO 30009KT 1/2SM -SN FZFG BKN015 OVC023 M04/M06 A2975 RMK AO2 P0000 T10391056
 
KCVX - Charlevoix, Michigan, USA
Distance from station: WSW 52mi, 83km
Updated: 11/19/2017 9:14am
Overcast
Overcast
 Wind from WNW
Wind: WNW 21 mph , 33 km/h, Gust: 30 mph , 48 km/h
Temperature: 32°F , 0°C
Wind Chill: 20°F , -7°C
Dew Point: 21°F , -6°C
Humidity: 64%
Barometer: 29.83 inHg , 1010.2 hPa
Clouds: Overcast
Visibility: 10 miles , 16 km
Cloud details: Mostly cloudy 2900 ft
Overcast 3500 ft
2017/11/19 14:14 KCVX 191414Z AUTO 30018G26KT 10SM BKN029 OVC035 00/M06 A2983 RMK AO2 T10051059
KANJ - Sault Ste Marie, Michigan, USA
Distance from station: N 56mi, 89km
Updated: 11/19/2017 8:55am
Overcast
Overcast
 Wind from N
Wind: N 9 mph , 15 km/h
Temperature: 25°F , -4°C
Wind Chill: 16°F , -9°C
Dew Point: 16°F , -9°C
Humidity: 69%
Barometer: 29.75 inHg , 1007.5 hPa
Clouds: Overcast
Visibility: 10 miles , 16 km
Cloud details: Overcast 4200 ft
2017/11/19 13:55 KANJ 191355Z AUTO 36008KT 10SM OVC042 M04/M09 A2975 RMK AO2 SNE07B21E34 SLP082 P0000 T10441094
 
KAPN - Alpena, Michigan, USA
Distance from station: SE 56mi, 89km
Updated: 11/19/2017 8:54am
Mostly cloudy
Mostly cloudy
 Wind from NW
Wind: NW 9 mph , 15 km/h, Gust: 18 mph , 30 km/h
Temperature: 30°F , -1°C
Wind Chill: 22°F , -6°C
Dew Point: 25°F , -4°C
Humidity: 80%
Barometer: 29.74 inHg , 1007.1 hPa
Clouds: Mostly cloudy
Visibility: 10 miles , 16 km
Cloud details: Few Clouds 4300 ft
Mostly cloudy 6000 ft
2017/11/19 13:54 KAPN 191354Z AUTO 31008G16KT 10SM FEW043 BKN060 M01/M04 A2974 RMK AO2 UPB00E01SNE00B01E02 SLP079 P0000 T10111044
CYAM - Sault Ste Marie, Ontario, Canada
Distance from station: N 56mi, 90km
Updated: 11/19/2017 9:00am

 
2017/11/19 14:00 CYAM 191400Z CCA 36010G17KT 9SM -SN FEW009 BKN033 BKN042 BKN240 M04/M09 A2976 RMK CU1SC6SC1CI1 CU TR CI TR SLP089
 
KSJX - Beaver Island, Michigan, USA
Distance from station: W 60mi, 96km
Updated: 11/19/2017 9:17am
Overcast
Overcast
 Wind from WNW
Wind: WNW 14 mph , 22 km/h, Gust: 28 mph , 44 km/h
Temperature: 28°F , -2°C
Wind Chill: 17°F , -8°C
Dew Point: 21°F , -6°C
Humidity: 74%
Barometer: 29.82 inHg , 1009.8 hPa
Clouds: Overcast
Visibility: 10 miles , 16 km
Cloud details: Mostly cloudy 2000 ft
Mostly cloudy 2700 ft
Overcast 3200 ft
2017/11/19 14:17 KSJX 191417Z AUTO 29012G24KT 270V330 10SM BKN020 BKN027 OVC032 M02/M06 A2982 RMK AO2 T10171057
KACB - Bellaire, Michigan, USA
Distance from station: SW 63mi, 102km
Updated: 11/19/2017 9:15am
Light snow, Overcast
Light snow, Overcast
 Wind from NW
Wind: NW 8 mph , 13 km/h
Temperature: 30°F , -1°C
Wind Chill: 22°F , -6°C
Dew Point: 23°F , -5°C
Humidity: 75%
Barometer: 29.82 inHg , 1009.8 hPa
Summary: Light Snow
Clouds: Overcast
Visibility: 10 miles , 16 km
Cloud details: Partly cloudy 3200 ft
Overcast 4100 ft
2017/11/19 14:15 KACB 191415Z AUTO 31007KT 10SM -SN SCT032 OVC041 M01/M05 A2982 RMK AO2 T10071049
 
CWNL - Great Duck Island, Ontario, Canada
Distance from station: E 66mi, 106km
Updated: 11/19/2017 8:00am
NOT Current

 Wind from NNW
Wind: NNW 9 mph , 15 km/h
Temperature: 34°F , 1°C
Wind Chill: 27°F , -3°C
Dew Point: 27°F , -3°C
Humidity: 75%
2017/11/19 13:00 CWNL 191300Z AUTO 34008KT 01/M03 RMK AO1 PK WND 30018/1222 SLP055 T00051032 51024
KERY - Newberry, Michigan, USA
Distance from station: NW 69mi, 112km
Updated: 11/19/2017 9:14am
Snow, Overcast
Snow, Overcast
 Wind from NW
Wind: NW 6 mph , 9 km/h
Temperature: 23°F , -5°C
Wind Chill: 16°F , -9°C
Dew Point: 23°F , -5°C
Humidity: 100%
Barometer: 29.79 inHg , 1008.8 hPa
Summary: Snow
Clouds: Overcast
Visibility: 1/4 mile , 0.4 km
Cloud details: Overcast 500 ft
2017/11/19 14:14 KERY 191414Z AUTO 31005KT 1/4SM SN OVC005 M05/M05 A2979 RMK AO2 T10461050
 
KGOV - Grayling Af, Michigan, USA
Distance from station: SSW 70mi, 113km
Updated: 11/19/2017 9:15am
Light snow, Overcast
Light snow, Overcast
 Wind from WNW
Wind: WNW 8 mph , 13 km/h
Temperature: 28°F , -2°C
Wind Chill: 20°F , -7°C
Dew Point: 23°F , -5°C
Humidity: 80%
Barometer: 29.79 inHg , 1008.8 hPa
Summary: Light Snow
Clouds: Overcast
Visibility: 10 miles , 16 km
Cloud details: Partly cloudy 1000 ft
Partly cloudy 2300 ft
Overcast 4400 ft
2017/11/19 14:15 KGOV 191415Z AUTO 30007KT 10SM -SN SCT010 SCT023 OVC044 M02/M05 A2979 RMK AO2 T10211055